Irvine, KY (40472)

5:13 AM EDT on September 04, 2015 (GMT -0400)
Irvine, Ky. | | Change Station
CLOSE
Current Station
Personal Weather Station
Location: Irvine, KY
Elevation: 719 ft
Nearby Weather Stations

Elev 719 ft 37.69 °N, 83.96 °W | Updated 1 second ago

Clear
Clear
66.6 °F
Feels Like 66.6 °F
N
0.0
Wind Variable Wind from SE
Gusts 0.0 mph

Today
High -- | Low -- °F
--% Chance of Precip.
Yesterday
High -- | Low -- °F
Precip. -- in
7:08 AM 8:00 PM
Waning Gibbous, 61% visible
Pressure 30.03 in
Visibility 2.5 miles
Clouds Clear
Dew Point 66 °F
Humidity 97%
Rainfall 0.00 in
Snow Depth Not available.
UV 0 out of 12
Pollen 9.60 out of 12
Air Quality Not available.
Flu Activity Not available.
METAR KI39 040855Z AUTO 00000KT 2 1/2SM CLR 19/18 A3003 RMK AO2
Pressure 30.03 in
Visibility 2.5 miles
Clouds Clear
Dew Point 66 °F
Humidity 97%
Rainfall 0.00 in
Snow Depth Not available.
UV 0 out of 12
Pollen 9.60 out of 12
Air Quality Not available.
Flu Activity Not available.
METAR KI39 040855Z AUTO 00000KT 2 1/2SM CLR 19/18 A3003 RMK AO2

10-Day Weather Forecast

×

Almanac

Astronomy

Sep. 04, 2015 Rise Set
Actual Time
Civil Twilight
Nautical Twilight
Astronomical Twilight
Moon
Length of Visible Light
Length of Day
Tomorrow will be .
, % of the Moon is Illuminated

Today's Extremes

State Highs State Lows

Community

WunderPhotos

Upload Photos

1,852,142 photos uploaded!

WunderBlogs® & News

Nearby

Air Quality

  Air Quality AQ Index Pollutant
Not available.

Snow Depth

Station Depth Elevation

Earthquake Activity

City Distance Mag. Time & Date
Minimum magnitude displayed is 2.5.

Coastal Water Temperatures

Place Temperature

Stations

Nearby Weather Stations

Station Location Temp. Windchill Dew Point Humidity Wind Precip. Elev Updated Type